Time;durP1;ratioP1;P1;durP2;ratioP2;P2;SDS_P1;SDS_P2;PMS_P1;PMS_P2;Temp;Humidity;BMP_temperature;BMP_pressure;BME280_temperature;BME280_humidity;BME280_pressure;Samples;Min_cycle;Max_cycle;Signal;HPM_P1;HPM_P2
2022/07/07 00:00:12;;;;;;;5.30;2.38;;;;;;;26.97;49.71;101091.19;5075116;28;20476;-74
2022/07/07 00:02:39;;;;;;;3.13;2.13;;;;;;;26.98;49.90;101099.19;5072944;28;20047;-74
2022/07/07 00:05:09;;;;;;;3.47;2.70;;;;;;;27.00;50.04;101086.25;5074796;28;20095;-75
2022/07/07 00:07:36;;;;;;;5.35;2.38;;;;;;;27.01;49.88;101090.66;5074344;28;20055;-74
2022/07/07 00:10:05;;;;;;;3.80;2.28;;;;;;;27.02;49.76;101078.78;5074710;28;20036;-74
2022/07/07 00:12:32;;;;;;;5.75;2.58;;;;;;;27.03;50.03;101075.03;5074591;28;20044;-74
2022/07/07 00:15:00;;;;;;;4.35;3.03;;;;;;;27.05;49.73;101074.84;5074470;28;20048;-74
2022/07/07 00:17:27;;;;;;;3.33;2.22;;;;;;;27.04;49.97;101071.28;5074352;28;20059;-74
2022/07/07 00:19:55;;;;;;;3.72;2.30;;;;;;;27.06;50.04;101066.53;5073088;28;20093;-74
2022/07/07 00:22:22;;;;;;;7.50;2.60;;;;;;;27.07;49.89;101062.78;5072026;28;20049;-74
2022/07/07 00:24:50;;;;;;;5.85;2.72;;;;;;;27.09;49.75;101059.88;5074716;28;20044;-74
2022/07/07 00:27:17;;;;;;;7.63;2.63;;;;;;;27.09;49.47;101068.88;5074097;28;20055;-74
2022/07/07 00:29:44;;;;;;;4.18;2.72;;;;;;;27.09;49.72;101060.72;5072069;28;20048;-74
2022/07/07 00:32:12;;;;;;;3.53;2.20;;;;;;;27.10;49.59;101053.44;5074294;28;20396;-75
2022/07/07 00:34:39;;;;;;;3.33;2.38;;;;;;;27.11;49.67;101047.03;5074425;28;20052;-74
2022/07/07 00:37:06;;;;;;;4.13;2.85;;;;;;;27.12;49.59;101056.84;5073369;28;20059;-75
2022/07/07 00:39:34;;;;;;;4.07;2.58;;;;;;;27.12;49.85;101051.41;5073006;28;20047;-74
2022/07/07 00:42:01;;;;;;;4.30;2.80;;;;;;;27.13;49.74;101047.66;5074015;28;20468;-75
2022/07/07 00:44:28;;;;;;;4.97;2.65;;;;;;;27.14;49.47;101059.38;5073704;28;20048;-74
2022/07/07 00:46:58;;;;;;;3.30;2.42;;;;;;;27.14;49.80;101054.78;5073800;28;20044;-74
2022/07/07 00:49:25;;;;;;;3.95;2.22;;;;;;;27.16;49.81;101060.06;5073242;28;20055;-74
2022/07/07 00:51:53;;;;;;;4.05;2.55;;;;;;;27.16;49.64;101058.19;5073343;28;20044;-74
2022/07/07 00:54:21;;;;;;;3.47;2.40;;;;;;;27.17;49.66;101064.47;5073311;28;20048;-74
2022/07/07 00:56:48;;;;;;;7.03;2.90;;;;;;;27.17;49.86;101057.16;5073995;28;20044;-74
2022/07/07 00:59:35;;;;;;;3.28;2.63;;;;;;;27.18;49.72;101055.28;5072848;28;20594;-74
2022/07/07 01:02:03;;;;;;;4.70;2.50;;;;;;;27.19;49.88;101048.84;5073016;28;20048;-74
2022/07/07 01:04:31;;;;;;;7.43;2.72;;;;;;;27.18;49.80;101047.97;5073469;28;20040;-74
2022/07/07 01:06:58;;;;;;;4.45;2.17;;;;;;;27.18;49.87;101050.69;5073489;28;20051;-74
2022/07/07 01:09:25;;;;;;;3.75;2.80;;;;;;;27.19;49.60;101049.69;5073354;28;20067;-74
2022/07/07 01:11:57;;;;;;;3.67;2.47;;;;;;;27.20;49.79;101053.25;5072460;28;20513;-74
2022/07/07 01:14:25;;;;;;;3.67;2.38;;;;;;;27.20;49.91;101054.09;5073907;28;20075;-74
2022/07/07 01:16:53;;;;;;;3.05;2.50;;;;;;;27.21;49.68;101046.78;5073269;28;20048;-74
2022/07/07 01:19:21;;;;;;;3.88;2.60;;;;;;;27.21;49.77;101038.63;5073052;28;20037;-74
2022/07/07 01:22:03;;;;;;;3.15;2.53;;;;;;;27.21;49.91;101035.91;5071356;28;20055;-74
2022/07/07 01:24:31;;;;;;;4.00;2.80;;;;;;;27.21;49.59;101035.91;5072260;28;20052;-74
2022/07/07 01:27:10;;;;;;;5.28;3.03;;;;;;;27.22;49.78;101032.16;5073282;28;20278;-74
2022/07/07 01:29:43;;;;;;;4.40;2.40;;;;;;;27.22;49.96;101040.31;5072953;28;20071;-74
2022/07/07 01:32:11;;;;;;;3.40;2.55;;;;;;;27.22;49.84;101029.44;5073415;28;20040;-74
2022/07/07 01:34:40;;;;;;;3.97;2.45;;;;;;;27.23;49.99;101029.28;5073122;28;20052;-74
2022/07/07 01:37:08;;;;;;;4.22;2.55;;;;;;;27.23;49.69;101029.28;5073354;28;20055;-74
2022/07/07 01:39:39;;;;;;;4.57;2.72;;;;;;;27.24;49.56;101032.84;5073451;28;20486;-74
2022/07/07 01:42:07;;;;;;;3.25;2.55;;;;;;;27.25;49.59;101034.53;5073151;28;20384;-74
2022/07/07 01:44:37;;;;;;;3.70;2.50;;;;;;;27.25;49.70;101037.25;5074426;28;20049;-74
2022/07/07 01:47:05;;;;;;;3.38;3.08;;;;;;;27.25;49.76;101050.84;5073097;28;20419;-74
2022/07/07 01:49:33;;;;;;;3.92;2.75;;;;;;;27.26;49.77;101049.81;5072811;28;20507;-74
2022/07/07 01:52:03;;;;;;;5.05;3.15;;;;;;;27.26;49.86;101057.97;5071106;28;20055;-74
2022/07/07 01:54:32;;;;;;;3.53;2.75;;;;;;;27.27;49.98;101068.66;5073438;28;20049;-74
2022/07/07 01:57:00;;;;;;;4.68;2.88;;;;;;;27.26;49.64;101061.50;5073358;28;20048;-74
2022/07/07 01:59:28;;;;;;;3.65;2.75;;;;;;;27.27;49.88;101067.81;5073513;28;20055;-74
2022/07/07 02:01:55;;;;;;;4.20;2.80;;;;;;;27.27;49.86;101070.53;5072148;28;20048;-74
2022/07/07 02:04:23;;;;;;;5.00;3.20;;;;;;;27.27;49.95;101065.94;5072992;28;20049;-74
2022/07/07 02:06:52;;;;;;;3.50;3.03;;;;;;;27.28;50.22;101075.78;5073710;28;20064;-74
2022/07/07 02:09:20;;;;;;;5.60;2.80;;;;;;;27.28;50.09;101072.22;5071599;28;20048;-74
2022/07/07 02:11:47;;;;;;;3.63;2.40;;;;;;;27.28;50.11;101073.06;5072688;28;20048;-74
2022/07/07 02:14:14;;;;;;;3.78;2.90;;;;;;;27.29;50.27;101073.91;5073748;28;20045;-75
2022/07/07 02:16:42;;;;;;;4.97;2.72;;;;;;;27.30;50.23;101078.31;5076659;28;20044;-75
2022/07/07 02:19:10;;;;;;;3.92;3.08;;;;;;;27.30;50.17;101076.44;5075030;28;20044;-75
2022/07/07 02:21:37;;;;;;;4.50;3.13;;;;;;;27.30;50.07;101071.00;5075142;28;20041;-75
2022/07/07 02:24:08;;;;;;;6.72;3.33;;;;;;;27.30;50.37;101065.56;5076778;28;20053;-75
2022/07/07 02:26:35;;;;;;;4.30;3.10;;;;;;;27.30;50.08;101062.84;5076868;28;20052;-75
2022/07/07 02:29:03;;;;;;;5.00;2.90;;;;;;;27.30;50.08;101068.28;5076075;28;20056;-75
2022/07/07 02:31:31;;;;;;;5.75;2.90;;;;;;;27.32;50.36;101068.13;5075041;28;20040;-75
2022/07/07 02:33:58;;;;;;;8.15;2.67;;;;;;;27.31;50.23;101066.44;5075796;28;20407;-74
2022/07/07 02:36:26;;;;;;;3.58;2.90;;;;;;;27.32;50.54;101068.13;5076119;28;20048;-74
2022/07/07 02:38:53;;;;;;;4.20;2.45;;;;;;;27.32;50.51;101071.69;5075797;28;20056;-74
2022/07/07 02:41:20;;;;;;;5.65;2.90;;;;;;;27.32;50.46;101077.13;5074414;28;20048;-74
2022/07/07 02:43:48;;;;;;;3.72;2.95;;;;;;;27.33;50.66;101077.97;5075725;28;20075;-74
2022/07/07 02:46:15;;;;;;;7.07;3.08;;;;;;;27.32;50.57;101077.13;5075260;28;20048;-74
2022/07/07 02:48:43;;;;;;;3.55;2.60;;;;;;;27.32;50.43;101079.00;5075579;28;20407;-74
2022/07/07 02:51:10;;;;;;;3.10;2.70;;;;;;;27.34;50.39;101076.94;5073943;28;20056;-74
2022/07/07 02:53:38;;;;;;;3.33;2.65;;;;;;;27.33;50.61;101081.53;5075879;28;20052;-74
2022/07/07 02:56:05;;;;;;;4.65;3.10;;;;;;;27.33;50.23;101089.69;5075506;28;20048;-75
2022/07/07 02:58:33;;;;;;;5.32;3.30;;;;;;;27.33;50.61;101092.41;5076291;28;20044;-74
2022/07/07 03:01:00;;;;;;;3.67;3.30;;;;;;;27.35;50.42;101092.25;5075707;28;20045;-75
2022/07/07 03:03:28;;;;;;;3.85;3.17;;;;;;;27.34;50.58;101087.81;5075878;28;20060;-75
2022/07/07 03:05:56;;;;;;;3.85;3.03;;;;;;;27.34;50.31;101082.38;5075436;28;20044;-74
2022/07/07 03:08:23;;;;;;;6.50;3.58;;;;;;;27.35;50.50;101078.66;5076301;28;20379;-74
2022/07/07 03:10:58;;;;;;;5.53;3.38;;;;;;;27.33;50.41;101075.25;5073576;28;20544;-74
2022/07/07 03:13:26;;;;;;;4.07;3.38;;;;;;;27.32;50.56;101073.56;5075288;28;20048;-74
2022/07/07 03:15:55;;;;;;;4.70;3.45;;;;;;;27.30;50.51;101071.00;5073322;28;20053;-74
2022/07/07 03:18:23;;;;;;;6.07;3.45;;;;;;;27.30;50.93;101078.31;5074173;28;20044;-74
2022/07/07 03:20:51;;;;;;;5.45;3.97;;;;;;;27.29;51.22;101073.91;5073498;28;20056;-74
2022/07/07 03:23:19;;;;;;;5.72;4.25;;;;;;;27.28;50.68;101085.81;5075066;28;20044;-74
2022/07/07 03:25:47;;;;;;;5.10;3.80;;;;;;;27.26;49.78;101076.97;5075123;28;20055;-74
2022/07/07 03:28:15;;;;;;;4.70;3.90;;;;;;;27.23;50.08;101080.94;5073385;28;20059;-74
2022/07/07 03:30:42;;;;;;;6.05;4.20;;;;;;;27.22;49.99;101081.94;5074774;28;20047;-74
2022/07/07 03:33:10;;;;;;;4.93;4.22;;;;;;;27.20;49.90;101078.56;5075383;28;20044;-74
2022/07/07 03:35:38;;;;;;;3.63;3.33;;;;;;;27.18;49.97;101077.88;5074960;28;20044;-74
2022/07/07 03:38:06;;;;;;;4.97;3.92;;;;;;;27.16;50.06;101084.53;5074796;28;20530;-74
2022/07/07 03:40:34;;;;;;;4.35;3.63;;;;;;;27.14;50.12;101089.28;5075298;28;20051;-74
2022/07/07 03:43:03;;;;;;;3.78;3.47;;;;;;;27.12;50.30;101092.19;5075396;28;20044;-74
2022/07/07 03:45:31;;;;;;;5.20;3.83;;;;;;;27.11;50.03;101101.38;5074469;28;20052;-74
2022/07/07 03:47:58;;;;;;;4.03;3.50;;;;;;;27.10;50.03;101097.81;5074541;28;20047;-74
2022/07/07 03:50:25;;;;;;;4.50;3.42;;;;;;;27.10;50.28;101086.94;5074909;28;20041;-74
2022/07/07 03:52:53;;;;;;;4.72;3.55;;;;;;;27.10;50.09;101092.38;5074446;28;20048;-74
2022/07/07 03:55:21;;;;;;;4.30;3.75;;;;;;;27.11;50.58;101091.34;5074547;28;20411;-74
2022/07/07 03:57:48;;;;;;;5.88;3.85;;;;;;;27.10;50.51;101099.66;5073423;28;20054;-74
2022/07/07 04:00:16;;;;;;;5.55;4.07;;;;;;;27.09;50.18;101089.78;5074584;28;20089;-74
2022/07/07 04:02:43;;;;;;;4.18;3.75;;;;;;;27.05;50.06;101099.31;5072660;28;20055;-74
2022/07/07 04:05:11;;;;;;;6.32;3.88;;;;;;;27.00;49.27;101097.13;5074838;28;20040;-74
2022/07/07 04:07:38;;;;;;;4.30;3.83;;;;;;;26.97;48.85;101096.63;5072827;28;20064;-74
2022/07/07 04:10:06;;;;;;;5.78;3.60;;;;;;;26.92;48.66;101094.44;5074034;28;20060;-74
2022/07/07 04:12:34;;;;;;;5.88;4.13;;;;;;;26.87;48.91;101094.13;5074336;28;20056;-74
2022/07/07 04:15:01;;;;;;;4.78;4.28;;;;;;;26.83;49.29;101090.06;5073987;28;20044;-74
2022/07/07 04:17:32;;;;;;;4.75;3.92;;;;;;;26.79;49.71;101088.72;5074016;28;20048;-74
2022/07/07 04:19:59;;;;;;;5.78;4.45;;;;;;;26.75;50.04;101082.78;5074558;28;20051;-74
2022/07/07 04:22:27;;;;;;;5.72;4.00;;;;;;;26.71;50.12;101073.31;5074341;28;20047;-74
2022/07/07 04:24:54;;;;;;;5.43;4.03;;;;;;;26.68;50.61;101084.50;5073830;28;20492;-74
2022/07/07 04:27:22;;;;;;;4.53;4.00;;;;;;;26.67;50.69;101090.13;5073889;28;20056;-74
2022/07/07 04:29:49;;;;;;;6.38;4.07;;;;;;;26.63;51.44;101105.91;5073562;28;20423;-74
2022/07/07 04:32:17;;;;;;;4.97;4.28;;;;;;;26.57;51.43;101104.72;5073755;28;20044;-74
2022/07/07 04:34:44;;;;;;;5.07;4.45;;;;;;;26.52;51.37;101098.97;5072401;28;20060;-74
2022/07/07 04:37:12;;;;;;;6.63;4.20;;;;;;;26.50;51.68;101102.91;5071602;28;20062;-74
2022/07/07 04:39:39;;;;;;;4.80;4.30;;;;;;;26.50;51.99;101106.47;5073615;28;20049;-74
2022/07/07 04:42:07;;;;;;;5.20;4.57;;;;;;;26.48;51.84;101123.94;5073859;28;20047;-74
2022/07/07 04:44:34;;;;;;;6.38;5.07;;;;;;;26.43;52.01;101129.84;5073306;28;20048;-75
2022/07/07 04:47:02;;;;;;;7.55;5.13;;;;;;;26.34;52.04;101136.31;5074168;28;20067;-74
2022/07/07 04:49:31;;;;;;;7.18;5.00;;;;;;;26.27;52.13;101132.56;5073945;28;20059;-74
2022/07/07 04:51:58;;;;;;;8.07;5.13;;;;;;;26.22;52.17;101124.09;5073571;28;20052;-74
2022/07/07 04:54:26;;;;;;;7.70;5.40;;;;;;;26.19;52.30;101140.72;5073319;28;20051;-74
2022/07/07 04:56:53;;;;;;;4.63;4.20;;;;;;;26.19;52.54;101138.00;5073802;28;20040;-74
2022/07/07 04:59:20;;;;;;;6.72;4.35;;;;;;;26.21;52.71;101152.22;5073245;28;20063;-74
2022/07/07 05:01:48;;;;;;;5.63;4.78;;;;;;;26.19;52.92;101147.00;5071428;28;20059;-74
2022/07/07 05:04:15;;;;;;;5.30;4.80;;;;;;;26.12;53.16;101148.69;5073459;28;20056;-74
2022/07/07 05:06:43;;;;;;;5.80;4.80;;;;;;;26.05;53.32;101161.22;5071730;28;20056;-74
2022/07/07 05:09:10;;;;;;;5.78;4.97;;;;;;;26.00;53.62;101163.59;5073306;28;20392;-74
2022/07/07 05:11:38;;;;;;;8.50;4.95;;;;;;;25.97;53.74;101164.78;5073622;28;20047;-75
2022/07/07 05:14:05;;;;;;;5.50;3.95;;;;;;;25.98;53.74;101166.47;5072166;28;20399;-75
2022/07/07 05:16:33;;;;;;;6.53;4.47;;;;;;;26.00;53.51;101169.88;5073132;28;20040;-74
2022/07/07 05:19:00;;;;;;;6.00;4.47;;;;;;;26.02;53.91;101177.84;5073353;28;20048;-74
2022/07/07 05:21:27;;;;;;;7.15;5.25;;;;;;;25.98;54.04;101171.91;5073769;28;20049;-74
2022/07/07 05:23:55;;;;;;;6.32;4.95;;;;;;;25.96;54.12;101173.06;5071254;28;20059;-74
2022/07/07 05:26:22;;;;;;;4.63;3.85;;;;;;;25.99;53.77;101179.03;5073264;28;20048;-74
2022/07/07 05:28:50;;;;;;;4.43;3.88;;;;;;;26.05;53.81;101178.38;5073316;28;20045;-74
2022/07/07 05:31:17;;;;;;;8.00;4.22;;;;;;;26.10;53.58;101178.69;5073021;28;20373;-74
2022/07/07 05:33:44;;;;;;;6.03;4.18;;;;;;;26.18;53.31;101171.59;5072921;28;20044;-74
2022/07/07 05:36:12;;;;;;;6.18;4.00;;;;;;;26.23;52.89;101175.47;5073149;28;20055;-74
2022/07/07 05:38:39;;;;;;;5.90;4.15;;;;;;;26.28;52.63;101180.41;5072749;28;20053;-74
2022/07/07 05:41:07;;;;;;;5.10;3.80;;;;;;;26.32;52.76;101179.88;5072734;28;20044;-74
2022/07/07 05:43:34;;;;;;;5.82;3.80;;;;;;;26.36;52.53;101170.38;5073375;28;20048;-74
2022/07/07 05:46:01;;;;;;;4.30;3.88;;;;;;;26.41;52.43;101179.88;5072894;28;20041;-75
2022/07/07 05:48:29;;;;;;;4.93;4.00;;;;;;;26.45;52.38;101184.00;5073386;28;20419;-74
2022/07/07 05:50:56;;;;;;;4.32;3.90;;;;;;;26.48;52.43;101184.50;5077005;28;20045;-74
2022/07/07 05:53:23;;;;;;;5.10;3.97;;;;;;;26.50;52.25;101185.19;5077501;28;20055;-74
2022/07/07 05:55:51;;;;;;;4.32;3.70;;;;;;;26.52;52.13;101187.72;5076684;28;20052;-74
2022/07/07 05:58:19;;;;;;;5.70;3.67;;;;;;;26.53;52.17;101184.81;5075185;28;20049;-74
2022/07/07 06:00:47;;;;;;;5.88;3.63;;;;;;;26.53;52.08;101190.25;5076570;28;20051;-74
2022/07/07 06:03:14;;;;;;;4.90;4.25;;;;;;;26.50;52.78;101187.91;5076507;28;20400;-74
2022/07/07 06:05:43;;;;;;;5.03;4.38;;;;;;;26.48;52.66;101192.66;5077135;28;20486;-74
2022/07/07 06:08:10;;;;;;;5.10;4.00;;;;;;;26.43;52.65;101186.00;5076865;28;20040;-74
2022/07/07 06:10:38;;;;;;;8.07;3.97;;;;;;;26.41;52.69;101194.31;5074530;28;20045;-74
2022/07/07 06:13:05;;;;;;;4.97;4.07;;;;;;;26.37;53.00;101187.53;5076378;28;20040;-74
2022/07/07 06:15:33;;;;;;;4.82;4.07;;;;;;;26.35;52.62;101200.44;5075034;28;20048;-74
2022/07/07 06:18:01;;;;;;;4.68;3.78;;;;;;;26.33;52.76;101197.91;5077143;28;20048;-74
2022/07/07 06:20:37;;;;;;;6.18;3.95;;;;;;;26.33;53.06;101200.59;5074801;28;20048;-74
2022/07/07 06:23:05;;;;;;;4.75;4.20;;;;;;;26.32;53.03;101200.75;5076808;28;20059;-75
2022/07/07 06:25:33;;;;;;;6.57;4.22;;;;;;;26.30;53.07;101195.50;5076282;28;20048;-74
2022/07/07 06:28:00;;;;;;;5.05;4.05;;;;;;;26.30;52.89;101197.38;5076787;28;20427;-74
2022/07/07 06:30:28;;;;;;;6.75;3.83;;;;;;;26.29;52.81;101199.25;5076552;28;20423;-74
2022/07/07 06:32:55;;;;;;;4.32;3.90;;;;;;;26.33;53.19;101195.19;5076599;28;20040;-75
2022/07/07 06:35:24;;;;;;;7.72;4.30;;;;;;;26.32;53.27;101189.91;5075929;28;20041;-74
2022/07/07 06:37:53;;;;;;;5.10;4.35;;;;;;;26.33;53.31;101194.31;5076106;28;20059;-75
2022/07/07 06:40:21;;;;;;;5.25;4.55;;;;;;;26.34;53.35;101198.75;5075850;28;20055;-74
2022/07/07 06:42:48;;;;;;;8.05;4.32;;;;;;;26.35;53.39;101195.00;5076481;28;20041;-74
2022/07/07 06:45:23;;;;;;;4.95;4.18;;;;;;;26.39;53.42;101196.34;5074255;28;20048;-74
2022/07/07 06:47:51;;;;;;;4.45;3.75;;;;;;;26.43;53.19;101197.72;5076416;28;20056;-74
2022/07/07 06:50:24;;;;;;;4.40;4.00;;;;;;;26.48;52.82;101197.22;5076173;28;20055;-74
2022/07/07 06:52:52;;;;;;;5.10;4.10;;;;;;;26.52;53.06;101204.84;5076315;28;20048;-74
2022/07/07 06:55:19;;;;;;;4.68;3.58;;;;;;;26.56;53.25;101203.50;5074455;28;20044;-74
2022/07/07 06:57:46;;;;;;;7.53;4.07;;;;;;;26.59;53.62;101203.16;5076180;28;20059;-74
2022/07/07 07:00:14;;;;;;;5.95;4.35;;;;;;;26.59;53.72;101196.91;5075012;28;20067;-75
2022/07/07 07:02:43;;;;;;;5.25;3.92;;;;;;;26.61;53.86;101201.13;5075718;28;20407;-75
2022/07/07 07:05:11;;;;;;;7.43;4.47;;;;;;;26.63;53.97;101199.09;5075375;28;20052;-75
2022/07/07 07:07:38;;;;;;;5.70;4.72;;;;;;;26.64;54.25;101199.94;5076005;28;20044;-74
2022/07/07 07:10:06;;;;;;;5.72;4.40;;;;;;;26.65;54.19;101193.47;5075751;28;20056;-75
2022/07/07 07:12:34;;;;;;;7.88;4.25;;;;;;;26.66;54.75;101200.63;5075459;28;20045;-76
2022/07/07 07:15:02;;;;;;;7.95;4.10;;;;;;;26.67;54.74;101196.88;5075572;28;20053;-73
2022/07/07 07:17:29;;;;;;;6.97;4.30;;;;;;;26.70;54.72;101204.69;5073828;28;20052;-73
2022/07/07 07:19:56;;;;;;;6.50;4.22;;;;;;;26.72;55.04;101207.22;5075546;28;20051;-74
2022/07/07 07:22:25;;;;;;;6.50;4.07;;;;;;;26.71;54.98;101210.97;5075669;28;20488;-74
2022/07/07 07:24:53;;;;;;;5.60;4.22;;;;;;;26.71;54.91;101202.81;5075843;28;20049;-74
2022/07/07 07:27:20;;;;;;;4.72;4.25;;;;;;;26.72;55.08;101201.78;5074163;28;20053;-74
2022/07/07 07:29:47;;;;;;;5.15;3.65;;;;;;;26.73;55.24;101203.47;5076259;28;20047;-74
2022/07/07 07:32:15;;;;;;;8.02;4.93;;;;;;;26.73;55.38;101193.47;5099719;28;20044;-74
2022/07/07 07:34:42;;;;;;;5.80;4.30;;;;;;;26.74;55.17;101194.31;5095233;28;20380;-74
2022/07/07 07:37:10;;;;;;;6.65;3.55;;;;;;;26.74;55.27;101178.00;5096913;28;20047;-74
2022/07/07 07:39:37;;;;;;;7.53;4.35;;;;;;;26.76;55.24;101184.13;5094404;28;20047;-74
2022/07/07 07:42:04;;;;;;;7.47;4.72;;;;;;;26.77;55.24;101180.38;5094291;28;20051;-74
2022/07/07 07:47:18;;;;;;;7.72;4.70;;;;;;;26.82;55.68;101172.59;5095314;28;20047;-76
2022/07/07 07:49:46;;;;;;;8.70;4.57;;;;;;;26.83;55.77;101171.56;5095317;28;20040;-76
2022/07/07 07:52:13;;;;;;;9.77;5.13;;;;;;;26.83;56.13;101171.56;5095655;28;20044;-77
2022/07/07 07:54:40;;;;;;;6.90;4.47;;;;;;;26.83;55.69;101171.56;5096207;28;20048;-77
2022/07/07 07:57:08;;;;;;;8.27;4.47;;;;;;;26.87;56.02;101159.34;5095000;28;20052;-77
2022/07/07 07:59:35;;;;;;;6.15;4.35;;;;;;;26.90;55.90;101160.84;5094346;28;20074;-75
2022/07/07 08:02:03;;;;;;;8.35;4.68;;;;;;;26.92;55.15;101148.78;5095184;28;20380;-75
2022/07/07 08:04:30;;;;;;;6.97;4.93;;;;;;;26.97;56.12;101154.53;5095521;28;20510;-74
2022/07/07 08:06:58;;;;;;;7.68;4.50;;;;;;;26.99;56.04;101149.78;5094622;28;20048;-75
2022/07/07 08:09:26;;;;;;;5.53;4.55;;;;;;;27.03;56.08;101153.00;5094776;28;20052;-75
2022/07/07 08:11:54;;;;;;;7.20;4.60;;;;;;;27.05;55.59;101151.78;5093388;28;20047;-74
2022/07/07 08:14:21;;;;;;;7.68;4.80;;;;;;;27.07;56.01;101149.75;5094365;28;20058;-75
2022/07/07 08:16:49;;;;;;;6.68;3.97;;;;;;;27.07;56.54;101151.63;5094338;28;20044;-74
2022/07/07 08:19:19;;;;;;;6.55;4.65;;;;;;;27.07;56.09;101155.19;5094174;28;20515;-75
2022/07/07 08:21:47;;;;;;;9.68;5.15;;;;;;;27.11;55.61;101153.00;5094064;28;20051;-74
2022/07/07 08:24:15;;;;;;;6.57;5.22;;;;;;;27.14;56.03;101147.19;5093874;28;20040;-74
2022/07/07 08:26:43;;;;;;;6.13;4.10;;;;;;;27.17;55.55;101146.84;5093934;28;20048;-74
2022/07/07 08:29:10;;;;;;;6.22;4.13;;;;;;;27.19;55.34;101146.69;5093946;28;20048;-74
2022/07/07 08:31:37;;;;;;;4.63;3.60;;;;;;;27.19;55.24;101141.25;5094106;28;20403;-74
2022/07/07 08:34:05;;;;;;;4.57;3.95;;;;;;;27.21;55.73;101145.47;5093880;28;20043;-74
2022/07/07 08:36:33;;;;;;;6.50;4.82;;;;;;;27.23;55.53;101145.31;5093673;28;20506;-74
2022/07/07 08:39:01;;;;;;;7.13;4.50;;;;;;;27.27;55.76;101149.38;5093765;28;20048;-74
2022/07/07 08:41:29;;;;;;;4.85;4.25;;;;;;;27.27;56.17;101136.63;5094186;28;20040;-74
2022/07/07 08:43:56;;;;;;;6.88;4.10;;;;;;;27.26;55.94;101140.34;5093720;28;20401;-74
2022/07/07 08:46:24;;;;;;;6.15;4.60;;;;;;;27.28;56.04;101132.88;5093706;28;20521;-74
2022/07/07 08:48:53;;;;;;;4.88;4.38;;;;;;;27.32;55.96;101127.94;5093563;28;20052;-74
2022/07/07 08:51:22;;;;;;;8.38;4.13;;;;;;;27.33;56.12;101141.34;5093480;28;20047;-74
2022/07/07 08:53:49;;;;;;;5.57;4.47;;;;;;;27.35;56.38;101125.72;5093545;28;20402;-74
2022/07/07 08:56:18;;;;;;;7.40;4.00;;;;;;;27.38;56.09;101132.66;5093449;28;20044;-74
2022/07/07 08:58:46;;;;;;;6.97;4.72;;;;;;;27.41;56.19;101126.03;5093406;28;20502;-75
2022/07/07 09:01:30;;;;;;;5.30;3.95;;;;;;;27.42;56.65;101125.81;5093736;28;20048;-74
2022/07/07 09:03:58;;;;;;;8.52;4.50;;;;;;;27.45;56.20;101122.75;5093071;28;20044;-75
2022/07/07 09:06:26;;;;;;;5.22;3.83;;;;;;;27.47;56.10;101126.16;5093346;28;20048;-74
2022/07/07 09:08:55;;;;;;;9.90;4.80;;;;;;;27.49;56.15;101123.25;5093307;28;20048;-74
2022/07/07 09:11:30;;;;;;;7.22;4.28;;;;;;;27.48;56.32;101116.97;5093807;28;20040;-74
2022/07/07 09:14:11;;;;;;;7.38;4.60;;;;;;;27.47;56.24;101118.00;5091532;28;20059;-74
2022/07/07 09:16:39;;;;;;;8.55;4.15;;;;;;;27.48;55.89;101116.97;5091750;28;20048;-75
2022/07/07 09:19:18;;;;;;;6.68;4.40;;;;;;;27.50;56.26;101117.63;5093167;28;20044;-75
2022/07/07 09:21:47;;;;;;;5.72;4.28;;;;;;;27.51;56.17;101107.63;5092044;28;20047;-75
2022/07/07 09:24:16;;;;;;;5.03;4.28;;;;;;;27.53;55.63;101108.28;5092968;28;20036;-75
2022/07/07 09:26:46;;;;;;;5.38;4.32;;;;;;;27.56;55.95;101103.31;5093372;28;20491;-74
2022/07/07 09:29:18;;;;;;;5.65;4.28;;;;;;;27.54;56.04;101099.91;5093408;28;20052;-73
2022/07/07 09:32:04;;;;;;;5.93;4.20;;;;;;;27.53;56.31;101092.78;5092447;28;20491;-73
2022/07/07 09:34:37;;;;;;;10.38;4.70;;;;;;;27.54;55.94;101097.19;5093174;28;20040;-74
2022/07/07 09:39:55;;;;;;;6.45;4.93;;;;;;;27.56;56.09;101072.56;5093208;28;20052;-73
2022/07/07 09:42:34;;;;;;;7.35;4.57;;;;;;;27.56;55.45;101069.84;5093286;28;20399;-73
2022/07/07 09:45:04;;;;;;;5.28;4.13;;;;;;;27.57;55.36;101066.94;5092825;28;20083;-73
2022/07/07 09:47:35;;;;;;;8.18;4.90;;;;;;;27.57;55.55;101074.25;5091702;28;20044;-73
2022/07/07 09:50:12;;;;;;;6.25;4.45;;;;;;;27.57;55.99;101083.25;5091123;28;20044;-73
2022/07/07 09:52:42;;;;;;;5.22;4.25;;;;;;;27.57;55.78;101079.69;5093553;28;20055;-73
2022/07/07 09:55:11;;;;;;;4.90;4.28;;;;;;;27.56;55.08;101087.00;5093385;28;20052;-73
2022/07/07 09:57:40;;;;;;;6.82;4.63;;;;;;;27.54;54.97;101083.59;5093257;28;20116;-73
2022/07/07 10:00:09;;;;;;;6.65;4.45;;;;;;;27.56;54.91;101086.16;5093636;28;20051;-73
2022/07/07 10:02:39;;;;;;;7.43;4.70;;;;;;;27.54;54.71;101078.16;5091714;28;20059;-74
2022/07/07 10:05:07;;;;;;;5.70;5.07;;;;;;;27.55;55.12;101070.88;5092843;28;20044;-73
2022/07/07 10:07:35;;;;;;;7.00;4.57;;;;;;;27.55;54.98;101073.59;5093174;28;20048;-73
2022/07/07 10:10:05;;;;;;;5.78;4.65;;;;;;;27.56;54.66;101070.69;5093185;28;20487;-73
2022/07/07 10:12:36;;;;;;;6.97;4.32;;;;;;;27.57;54.67;101072.38;5092888;28;20526;-73
2022/07/07 10:15:08;;;;;;;6.68;4.30;;;;;;;27.57;54.42;101066.94;5091621;28;20052;-73
2022/07/07 10:17:36;;;;;;;;;;;;;;;27.61;53.43;101070.97;5093022;28;20044;-74
2022/07/07 10:20:04;;;;;;;6.78;4.18;;;;;;;27.66;52.80;101069.59;5092611;28;19920;-73
2022/07/07 10:22:32;;;;;;;6.05;4.40;;;;;;;27.72;53.10;101068.88;5092692;28;20052;-74
2022/07/07 10:25:01;;;;;;;9.13;4.30;;;;;;;27.73;53.25;101066.00;5092599;28;20044;-73
2022/07/07 10:27:30;;;;;;;6.03;4.07;;;;;;;27.75;51.98;101063.97;5092507;28;20047;-74
2022/07/07 10:29:59;;;;;;;6.00;4.15;;;;;;;27.77;51.48;101061.88;5090874;28;20100;-74
2022/07/07 10:32:31;;;;;;;5.28;3.63;;;;;;;27.79;52.10;101062.56;5092452;28;20048;-74
2022/07/07 10:35:05;;;;;;;6.50;3.95;;;;;;;27.80;51.44;101063.41;5091601;28;20055;-74
2022/07/07 10:37:52;;;;;;;4.88;3.97;;;;;;;27.80;52.16;101052.53;5096898;28;20044;-74
2022/07/07 10:40:24;;;;;;;7.65;4.35;;;;;;;27.79;52.47;101053.53;5096203;28;20048;-74
2022/07/07 10:43:13;;;;;;;7.57;4.83;;;;;;;27.78;53.11;101049.97;5095266;28;20048;-74
2022/07/07 10:45:52;;;;;;;4.70;4.05;;;;;;;27.79;52.89;101040.81;5096441;28;20600;-74
2022/07/07 10:48:46;;;;;;;6.13;4.30;;;;;;;27.80;53.12;101038.94;5096094;28;20044;-74
2022/07/07 10:51:27;;;;;;;4.70;4.20;;;;;;;27.78;53.00;101030.94;5087975;28;20592;-74
2022/07/07 10:54:03;;;;;;;4.85;4.10;;;;;;;27.78;52.78;101020.03;5096008;28;20055;-74
2022/07/07 10:56:53;;;;;;;5.47;4.47;;;;;;;27.77;52.58;101015.66;5095960;28;20055;-74
2022/07/07 10:59:22;;;;;;;6.22;4.43;;;;;;;27.77;52.77;101007.47;5093993;28;20044;-73
2022/07/07 11:02:02;;;;;;;4.45;4.05;;;;;;;27.76;52.71;101005.81;5095713;28;20403;-73
2022/07/07 11:04:59;;;;;;;9.68;3.90;;;;;;;27.77;52.79;101003.91;5094244;28;20047;-74
2022/07/07 11:07:28;;;;;;;5.25;3.83;;;;;;;27.77;52.37;100993.88;5092918;28;20411;-73
2022/07/07 11:10:08;;;;;;;7.70;3.92;;;;;;;27.79;52.64;100990.97;5095612;28;20371;-74
2022/07/07 11:12:53;;;;;;;5.05;3.58;;;;;;;27.79;51.61;100986.41;5095753;28;20052;-75
2022/07/07 11:15:20;;;;;;;6.80;4.07;;;;;;;27.80;51.30;100989.97;5095446;28;20040;-75
2022/07/07 11:18:06;;;;;;;5.18;3.38;;;;;;;27.80;50.90;100979.91;5077446;28;20044;-74
2022/07/07 11:20:34;;;;;;;6.28;3.72;;;;;;;27.82;49.06;100982.44;5095978;28;20044;-75
2022/07/07 11:23:10;;;;;;;3.80;3.40;;;;;;;27.84;49.23;100978.53;5095347;28;20491;-73
2022/07/07 11:25:39;;;;;;;4.65;3.47;;;;;;;27.85;49.31;100982.91;5095279;28;20052;-74
2022/07/07 11:28:08;;;;;;;5.25;3.28;;;;;;;27.85;50.04;100972.03;5094167;28;20044;-74
2022/07/07 11:30:39;;;;;;;5.97;3.63;;;;;;;27.86;49.98;100967.44;5094374;28;20403;-74
2022/07/07 11:33:08;;;;;;;4.50;3.42;;;;;;;27.88;50.16;100970.84;5093919;28;20059;-74
2022/07/07 11:35:40;;;;;;;4.95;3.45;;;;;;;27.88;50.42;100959.94;5095439;28;20417;-74
2022/07/07 11:38:09;;;;;;;4.63;3.58;;;;;;;27.88;50.80;100950.94;5095771;28;20056;-75